Airfield :
LOGIN :

Register | Disclaimer

   EN    FR    IT 

 










Legend :    VFR   Marginal VFR   IFR   Intensive IFR   Very Intensive IFR
Visi :
Ceiling :
>= 8 km
>= 3000ft
5 to 8 km
1000 to 3000 ft
1500m to 5 km
500 to 1000 ft
800 to 1500m
200 to 500 ft
< 800m
< 200 ft
Symbols :   Thunderstorms  Fog  Heavy snow  Heavy precipitations  Wind > 20 kt
SIGMETs :     Misc.  Thunderstorms  Icing  Turbulence  Mountain Waves  Volcanic Ashes







- Airport Elevation : 202 ft
- IATA code : LGW
- Download approach charts


EGKK - London Gatwick

CURRENT METAR :
  • 121520Z 19004KT CAVOK 03/M00 Q1010

EXPIRED METARs :
  • 121450Z 22004KT CAVOK 03/00 Q1010
  • 121420Z 20004KT CAVOK 04/00 Q1009
  • 121350Z 20005KT CAVOK 03/00 Q1009
  • 121320Z 24006KT CAVOK 03/00 Q1010
  • 121250Z 23005KT 190V270 CAVOK 03/M00 Q1010

TAF TAF EGKK
Valid from the 12 at 12:00 until the 13 at 18:00 UTC


121101Z 1212/1318 23006KT CAVOK
BECMG 1218/1221 BKN030
TEMPO 1221/1224 8000 RA BKN012
BECMG 1300/1303 BKN012
TEMPO 1300/1305 6000 RA BKN008
PROB30
TEMPO 1300/1305 19015G25KT 3000 RADZ BKN004
BECMG 1305/1308 BKN030
TEMPO 1310/1318 7000 SHRA BKN014
PROB30
TEMPO 1314/1317 26015G28KT 4000 +SHRA
No reported NOTAMs for that airfield.
1 SIGMET reported for the London FIR (EGTT) :
 
Severe turbulence
EGTT SIGMET 03 VALID 121500/121900 EGRR
EGTT LONDON FIR SEV TURB FCST WI N5100 W00726 - N5207 W00519 - N4934 W00416 - N4926 W00456 - N4901 W00703 - N5100 W00726 FL200/420 MOV E 05KT NC=



MET'MAP, your aeronautical weather chart ! - Copyright ORBIFLY December 2007 - Disclaimer

ORBIFLY MET'MAP TEAM :

Programming & Development : Alexandra Zaïnal
Concept & Development : Baudouin d'Aumeries
Co-Development & Prog : Marc-Olivier Méhu
Technical & hardware support : Manuel Goepfert

Contact : metmap@orbifly.com




SOURCES & CREDITS :

   NOAA